createdAt,value
2018-09-15T00:00:18.749Z,1014.92
2018-09-15T00:01:18.733Z,1014.94
2018-09-15T00:02:18.713Z,1014.89
2018-09-15T00:03:18.704Z,1014.91
2018-09-15T00:04:18.682Z,1014.88
2018-09-15T00:05:18.665Z,1014.89
2018-09-15T00:06:18.645Z,1014.88
2018-09-15T00:07:18.630Z,1014.91
2018-09-15T00:08:18.612Z,1014.90
2018-09-15T00:09:18.602Z,1014.92
2018-09-15T00:10:18.579Z,1014.93
2018-09-15T00:11:18.573Z,1014.93
2018-09-15T00:12:18.556Z,1014.93
2018-09-15T00:13:18.532Z,1014.88
2018-09-15T00:14:18.512Z,1014.89
2018-09-15T00:15:18.495Z,1014.92
2018-09-15T00:16:18.479Z,1014.91
2018-09-15T00:17:18.463Z,1014.94
2018-09-15T00:18:18.447Z,1014.89
2018-09-15T00:19:18.435Z,1014.92
2018-09-15T00:20:18.418Z,1014.96
2018-09-15T00:21:18.394Z,1014.93
2018-09-15T00:22:18.380Z,1014.94
2018-09-15T00:23:18.371Z,1014.95
2018-09-15T00:24:18.345Z,1014.93
2018-09-15T00:25:18.329Z,1014.96
2018-09-15T00:26:18.310Z,1014.92
2018-09-15T00:27:18.373Z,1014.95
2018-09-15T00:28:18.287Z,1014.96
2018-09-15T00:29:18.266Z,1014.94
2018-09-15T00:30:18.242Z,1014.95
2018-09-15T00:31:18.224Z,1014.98
2018-09-15T00:32:18.207Z,1015.03
2018-09-15T00:33:18.191Z,1015.01
2018-09-15T00:34:18.177Z,1015.02
2018-09-15T00:35:18.158Z,1015.01
2018-09-15T00:36:18.145Z,1014.98
2018-09-15T00:37:18.124Z,1014.99
2018-09-15T00:38:18.108Z,1014.99
2018-09-15T00:39:18.089Z,1014.99
2018-09-15T00:40:18.071Z,1015.03
2018-09-15T00:41:18.061Z,1014.96
2018-09-15T00:42:18.035Z,1015.03
2018-09-15T00:43:18.018Z,1015.05
2018-09-15T00:44:18.001Z,1015.06
2018-09-15T00:45:17.983Z,1015.07
2018-09-15T00:46:17.967Z,1015.14
2018-09-15T00:47:17.950Z,1015.12
2018-09-15T00:48:17.945Z,1015.10
2018-09-15T00:49:17.943Z,1015.16
2018-09-15T00:50:17.899Z,1015.13
2018-09-15T00:51:17.882Z,1015.13
2018-09-15T00:52:17.866Z,1015.15
2018-09-15T00:53:17.857Z,1015.17
2018-09-15T00:54:17.839Z,1015.17
2018-09-15T00:55:17.812Z,1015.14
2018-09-15T00:56:17.796Z,1015.12
2018-09-15T00:57:17.794Z,1015.15
2018-09-15T00:58:17.760Z,1015.09
2018-09-15T00:59:17.746Z,1015.11
2018-09-15T01:00:17.728Z,1015.11
2018-09-15T01:01:17.716Z,1015.10
2018-09-15T01:02:17.698Z,1015.11
2018-09-15T01:03:17.678Z,1015.08
2018-09-15T01:04:17.671Z,1015.12
2018-09-15T01:05:17.641Z,1015.08
2018-09-15T01:06:17.625Z,1015.12
2018-09-15T01:07:17.608Z,1015.09
2018-09-15T01:08:17.590Z,1015.11
2018-09-15T01:09:17.574Z,1015.07
2018-09-15T01:10:17.565Z,1015.08
2018-09-15T01:11:17.559Z,1015.05
2018-09-15T01:12:17.524Z,1015.03
2018-09-15T01:13:17.613Z,1015.03
2018-09-15T01:14:17.622Z,1015.05
2018-09-15T01:15:17.470Z,1015.01
2018-09-15T01:16:17.509Z,1015.03
2018-09-15T01:17:17.450Z,1015.02
2018-09-15T01:18:17.430Z,1015.02
2018-09-15T01:19:17.425Z,1014.99
2018-09-15T01:20:17.386Z,1015.01
2018-09-15T01:21:17.377Z,1015.01
2018-09-15T01:22:17.359Z,1015.02
2018-09-15T01:23:17.349Z,1015.01
2018-09-15T01:24:17.325Z,1014.99
2018-09-15T01:25:17.298Z,1014.98
2018-09-15T01:26:17.284Z,1015.02
2018-09-15T01:27:17.263Z,1014.99
2018-09-15T01:28:17.256Z,1014.97
2018-09-15T01:29:17.228Z,1015.01
2018-09-15T01:30:17.216Z,1014.99
2018-09-15T01:31:17.194Z,1014.93
2018-09-15T01:32:17.179Z,1015.00
2018-09-15T01:33:17.178Z,1014.96
2018-09-15T01:34:17.149Z,1014.94
2018-09-15T01:35:17.134Z,1014.93
2018-09-15T01:36:17.107Z,1014.95
2018-09-15T01:37:17.097Z,1014.94
2018-09-15T01:38:17.171Z,1014.93
2018-09-15T01:39:17.054Z,1014.96
2018-09-15T01:40:17.036Z,1014.95
2018-09-15T01:41:17.027Z,1014.90
2018-09-15T01:42:17.002Z,1014.98
2018-09-15T01:43:16.992Z,1014.99
2018-09-15T01:44:16.968Z,1014.95
2018-09-15T01:45:16.953Z,1014.98
2018-09-15T01:46:16.940Z,1014.97
2018-09-15T01:47:16.924Z,1015.00
2018-09-15T01:48:16.897Z,1015.01
2018-09-15T01:49:16.879Z,1014.98
2018-09-15T01:50:16.868Z,1014.96
2018-09-15T01:51:16.846Z,1014.98
2018-09-15T01:52:16.826Z,1015.03
2018-09-15T01:53:16.811Z,1015.01
2018-09-15T01:54:16.793Z,1015.03
2018-09-15T01:55:16.775Z,1015.01
2018-09-15T01:56:16.757Z,1015.02
2018-09-15T01:57:16.743Z,1015.03
2018-09-15T01:58:16.733Z,1014.98
2018-09-15T01:59:16.704Z,1015.01
2018-09-15T02:00:16.686Z,1015.00
2018-09-15T02:01:16.667Z,1015.04
2018-09-15T02:02:16.746Z,1015.04
2018-09-15T02:03:16.634Z,1015.02
2018-09-15T02:04:16.614Z,1015.03
2018-09-15T02:05:16.613Z,1014.99
2018-09-15T02:06:16.579Z,1014.99
2018-09-15T02:07:16.563Z,1015.00
2018-09-15T02:08:16.547Z,1015.01
2018-09-15T02:09:16.527Z,1015.03
2018-09-15T02:10:16.508Z,1014.98
2018-09-15T02:11:16.492Z,1014.99
2018-09-15T02:12:16.473Z,1014.98
2018-09-15T02:13:16.464Z,1014.98
2018-09-15T02:14:16.451Z,1014.95
2018-09-15T02:15:16.425Z,1014.92
2018-09-15T02:16:16.403Z,1014.93
2018-09-15T02:17:16.385Z,1014.93
2018-09-15T02:18:16.371Z,1014.89
2018-09-15T02:19:16.351Z,1014.86
2018-09-15T02:20:16.332Z,1014.80
2018-09-15T02:21:16.433Z,1014.84
2018-09-15T02:22:16.300Z,1014.88
2018-09-15T02:23:16.277Z,1014.90
2018-09-15T02:24:16.269Z,1014.90
2018-09-15T02:25:16.243Z,1014.86
2018-09-15T02:26:16.229Z,1014.87
2018-09-15T02:27:16.214Z,1014.92
2018-09-15T02:28:16.191Z,1014.93
2018-09-15T02:29:16.173Z,1014.92
2018-09-15T02:30:16.153Z,1014.89
2018-09-15T02:31:16.142Z,1014.89
2018-09-15T02:32:16.128Z,1014.92
2018-09-15T02:33:16.109Z,1014.93
2018-09-15T02:34:16.083Z,1014.95
2018-09-15T02:35:16.069Z,1014.93
2018-09-15T02:36:16.047Z,1014.91
2018-09-15T02:37:16.032Z,1014.88
2018-09-15T02:38:16.011Z,1014.88
2018-09-15T02:39:15.998Z,1014.92
2018-09-15T02:40:15.982Z,1014.94
2018-09-15T02:41:15.961Z,1014.95
2018-09-15T02:42:15.943Z,1014.94
2018-09-15T02:43:15.927Z,1014.92
2018-09-15T02:44:15.904Z,1014.91
2018-09-15T02:45:15.890Z,1014.90
2018-09-15T02:46:15.869Z,1014.89
2018-09-15T02:47:15.853Z,1014.86
2018-09-15T02:48:15.833Z,1014.88
2018-09-15T02:49:15.817Z,1014.83
2018-09-15T02:50:15.800Z,1014.87
2018-09-15T02:51:15.880Z,1014.83
2018-09-15T02:52:15.763Z,1014.86
2018-09-15T02:53:15.752Z,1014.86
2018-09-15T02:54:15.729Z,1014.87
2018-09-15T02:55:15.714Z,1014.90
2018-09-15T02:56:15.693Z,1014.89
2018-09-15T02:57:15.670Z,1014.90
2018-09-15T02:58:15.652Z,1014.89
2018-09-15T02:59:15.637Z,1014.91
2018-09-15T03:00:15.617Z,1014.92
2018-09-15T03:01:15.799Z,1014.92
2018-09-15T03:02:15.587Z,1014.93
2018-09-15T03:03:15.563Z,1014.98
2018-09-15T03:04:15.552Z,1014.99
2018-09-15T03:05:15.525Z,1015.01
2018-09-15T03:06:15.506Z,1015.04
2018-09-15T03:07:15.488Z,1015.03
2018-09-15T03:08:15.471Z,1015.08
2018-09-15T03:09:15.464Z,1015.04
2018-09-15T03:10:15.493Z,1015.06
2018-09-15T03:11:15.418Z,1015.07
2018-09-15T03:12:15.405Z,1015.09
2018-09-15T03:13:15.389Z,1015.08
2018-09-15T03:14:15.370Z,1015.03
2018-09-15T03:15:15.347Z,1015.05
2018-09-15T03:16:15.328Z,1015.09
2018-09-15T03:17:15.307Z,1015.08
2018-09-15T03:18:15.299Z,1015.13
2018-09-15T03:19:15.274Z,1015.14
2018-09-15T03:20:15.255Z,1015.08
2018-09-15T03:21:15.236Z,1015.14
2018-09-15T03:22:15.217Z,1015.16
2018-09-15T03:23:15.200Z,1015.16
2018-09-15T03:24:15.182Z,1015.15
2018-09-15T03:25:15.172Z,1015.10
2018-09-15T03:26:15.144Z,1015.12
2018-09-15T03:27:15.128Z,1015.10
2018-09-15T03:28:15.110Z,1015.08
2018-09-15T03:29:15.192Z,1015.06
2018-09-15T03:30:15.074Z,1015.08
2018-09-15T03:31:15.054Z,1015.07
2018-09-15T03:32:15.037Z,1015.12
2018-09-15T03:33:15.019Z,1015.10
2018-09-15T03:34:15.001Z,1015.09
2018-09-15T03:35:14.983Z,1015.10
2018-09-15T03:36:14.962Z,1015.11
2018-09-15T03:37:14.954Z,1015.11
2018-09-15T03:38:14.926Z,1015.15
2018-09-15T03:39:14.908Z,1015.18
2018-09-15T03:40:14.929Z,1015.17
2018-09-15T03:41:14.874Z,1015.17
2018-09-15T03:42:14.856Z,1015.19
2018-09-15T03:43:14.837Z,1015.18
2018-09-15T03:44:14.822Z,1015.19
2018-09-15T03:45:14.800Z,1015.18
2018-09-15T03:46:14.784Z,1015.15
2018-09-15T03:47:14.763Z,1015.15
2018-09-15T03:48:14.744Z,1015.15
2018-09-15T03:49:14.728Z,1015.13
2018-09-15T03:50:14.708Z,1015.14
2018-09-15T03:51:14.693Z,1015.16
2018-09-15T03:52:14.673Z,1015.17
2018-09-15T03:53:14.795Z,1015.19
2018-09-15T03:54:14.641Z,1015.16
2018-09-15T03:55:14.618Z,1015.19
2018-09-15T03:56:14.676Z,1015.20
2018-09-15T03:57:14.584Z,1015.19
2018-09-15T03:58:14.562Z,1015.20
2018-09-15T03:59:14.594Z,1015.20
2018-09-15T04:00:14.527Z,1015.19
2018-09-15T04:01:14.511Z,1015.19
2018-09-15T04:02:14.489Z,1015.21
2018-09-15T04:03:14.471Z,1015.25
2018-09-15T04:04:14.456Z,1015.25
2018-09-15T04:05:14.433Z,1015.24
2018-09-15T04:06:14.416Z,1015.25
2018-09-15T04:07:14.401Z,1015.27
2018-09-15T04:08:14.387Z,1015.28
2018-09-15T04:09:14.361Z,1015.26
2018-09-15T04:10:14.357Z,1015.28
2018-09-15T04:11:14.326Z,1015.31
2018-09-15T04:12:14.311Z,1015.29
2018-09-15T04:13:14.292Z,1015.34
2018-09-15T04:14:14.268Z,1015.30
2018-09-15T04:15:14.256Z,1015.32
2018-09-15T04:16:14.239Z,1015.35
2018-09-15T04:17:14.214Z,1015.32
2018-09-15T04:18:14.211Z,1015.34
2018-09-15T04:19:14.178Z,1015.30
2018-09-15T04:20:14.160Z,1015.33
2018-09-15T04:21:14.140Z,1015.34
2018-09-15T04:22:14.129Z,1015.38
2018-09-15T04:23:14.104Z,1015.38
2018-09-15T04:24:14.090Z,1015.35
2018-09-15T04:25:14.069Z,1015.38
2018-09-15T04:26:14.056Z,1015.39
2018-09-15T04:27:14.030Z,1015.37
2018-09-15T04:28:14.044Z,1015.37
2018-09-15T04:29:13.993Z,1015.42
2018-09-15T04:30:13.978Z,1015.39
2018-09-15T04:31:13.955Z,1015.39
2018-09-15T04:32:13.942Z,1015.39
2018-09-15T04:33:13.922Z,1015.45
2018-09-15T04:34:13.905Z,1015.45
2018-09-15T04:35:13.881Z,1015.48
2018-09-15T04:36:13.868Z,1015.50
2018-09-15T04:37:13.849Z,1015.46
2018-09-15T04:38:13.828Z,1015.46
2018-09-15T04:39:13.810Z,1015.45
2018-09-15T04:40:13.802Z,1015.47
2018-09-15T04:41:13.791Z,1015.48
2018-09-15T04:42:13.830Z,1015.47
2018-09-15T04:43:13.734Z,1015.48
2018-09-15T04:44:13.718Z,1015.49
2018-09-15T04:45:13.800Z,1015.49
2018-09-15T04:46:13.682Z,1015.50
2018-09-15T04:47:13.666Z,1015.54
2018-09-15T04:48:13.648Z,1015.52
2018-09-15T04:49:13.628Z,1015.54
2018-09-15T04:50:13.610Z,1015.53
2018-09-15T04:51:13.593Z,1015.53
2018-09-15T04:52:13.571Z,1015.55
2018-09-15T04:53:13.561Z,1015.51
2018-09-15T04:54:13.536Z,1015.50
2018-09-15T04:55:13.517Z,1015.53
2018-09-15T04:56:13.499Z,1015.54
2018-09-15T04:57:13.493Z,1015.53
2018-09-15T04:58:13.469Z,1015.55
2018-09-15T04:59:13.442Z,1015.56
2018-09-15T05:00:13.426Z,1015.59
2018-09-15T05:01:13.427Z,1015.59
2018-09-15T05:02:13.388Z,1015.61
2018-09-15T05:03:13.372Z,1015.59
2018-09-15T05:04:13.350Z,1015.60
2018-09-15T05:05:13.341Z,1015.60
2018-09-15T05:06:13.316Z,1015.61
2018-09-15T05:07:13.346Z,1015.65
2018-09-15T05:08:13.278Z,1015.64
2018-09-15T05:09:13.259Z,1015.63
2018-09-15T05:10:13.239Z,1015.66
2018-09-15T05:11:13.220Z,1015.65
2018-09-15T05:12:13.201Z,1015.62
2018-09-15T05:13:13.185Z,1015.68
2018-09-15T05:14:13.165Z,1015.65
2018-09-15T05:15:13.149Z,1015.66
2018-09-15T05:16:13.130Z,1015.68
2018-09-15T05:17:13.117Z,1015.66
2018-09-15T05:18:13.092Z,1015.65
2018-09-15T05:19:13.072Z,1015.63
2018-09-15T05:20:13.053Z,1015.68
2018-09-15T05:21:13.034Z,1015.68
2018-09-15T05:22:13.018Z,1015.68
2018-09-15T05:23:12.998Z,1015.70
2018-09-15T05:24:12.980Z,1015.71
2018-09-15T05:25:12.962Z,1015.73
2018-09-15T05:26:12.946Z,1015.74
2018-09-15T05:27:12.931Z,1015.77
2018-09-15T05:28:12.905Z,1015.72
2018-09-15T05:29:12.888Z,1015.73
2018-09-15T05:30:12.873Z,1015.77
2018-09-15T05:31:12.994Z,1015.77
2018-09-15T05:32:12.831Z,1015.79
2018-09-15T05:33:12.814Z,1015.78
2018-09-15T05:34:12.794Z,1015.81
2018-09-15T05:35:12.777Z,1015.82
2018-09-15T05:36:12.758Z,1015.79
2018-09-15T05:37:12.739Z,1015.78
2018-09-15T05:38:12.732Z,1015.78
2018-09-15T05:39:12.704Z,1015.82
2018-09-15T05:40:12.682Z,1015.79
2018-09-15T05:41:12.665Z,1015.82
2018-09-15T05:42:12.649Z,1015.83
2018-09-15T05:43:12.630Z,1015.86
2018-09-15T05:44:12.613Z,1015.84
2018-09-15T05:45:12.608Z,1015.85
2018-09-15T05:46:12.582Z,1015.82
2018-09-15T05:47:12.553Z,1015.86
2018-09-15T05:48:12.538Z,1015.87
2018-09-15T05:49:12.518Z,1015.90
2018-09-15T05:50:12.501Z,1015.88
2018-09-15T05:51:12.491Z,1015.92
2018-09-15T05:52:12.463Z,1015.92
2018-09-15T05:53:12.496Z,1015.90
2018-09-15T05:54:12.427Z,1015.92
2018-09-15T05:55:12.422Z,1015.86
2018-09-15T05:56:12.432Z,1015.91
2018-09-15T05:57:12.372Z,1015.92
2018-09-15T05:58:12.354Z,1016.01
2018-09-15T05:59:12.335Z,1015.98
2018-09-15T06:00:12.319Z,1016.00
2018-09-15T06:01:12.303Z,1016.01
2018-09-15T06:02:12.281Z,1015.97
2018-09-15T06:03:12.271Z,1015.96
2018-09-15T06:04:12.245Z,1015.96
2018-09-15T06:05:12.227Z,1015.96
2018-09-15T06:06:12.206Z,1015.98
2018-09-15T06:07:12.197Z,1016.01
2018-09-15T06:08:12.170Z,1016.03
2018-09-15T06:09:12.157Z,1016.00
2018-09-15T06:10:12.136Z,1016.02
2018-09-15T06:11:12.117Z,1016.03
2018-09-15T06:12:12.100Z,1016.04
2018-09-15T06:13:12.080Z,1016.05
2018-09-15T06:14:12.063Z,1016.07
2018-09-15T06:15:12.051Z,1016.03
2018-09-15T06:16:12.025Z,1016.03
2018-09-15T06:17:12.031Z,1016.04
2018-09-15T06:18:11.987Z,1016.06
2018-09-15T06:19:11.972Z,1016.06
2018-09-15T06:20:12.002Z,1016.07
2018-09-15T06:21:11.948Z,1016.13
2018-09-15T06:22:11.917Z,1016.14
2018-09-15T06:23:11.898Z,1016.19
2018-09-15T06:24:11.880Z,1016.23
2018-09-15T06:25:11.864Z,1016.19
2018-09-15T06:26:11.842Z,1016.25
2018-09-15T06:27:11.830Z,1016.28
2018-09-15T06:28:11.806Z,1016.31
2018-09-15T06:29:11.805Z,1016.29
2018-09-15T06:30:11.770Z,1016.31
2018-09-15T06:31:11.756Z,1016.27
2018-09-15T06:32:11.740Z,1016.28
2018-09-15T06:33:11.721Z,1016.26
2018-09-15T06:34:11.700Z,1016.27
2018-09-15T06:35:11.681Z,1016.24
2018-09-15T06:36:11.704Z,1016.28
2018-09-15T06:37:11.644Z,1016.26
2018-09-15T06:38:11.628Z,1016.26
2018-09-15T06:39:11.724Z,1016.28
2018-09-15T06:40:11.602Z,1016.31
2018-09-15T06:41:11.573Z,1016.37
2018-09-15T06:42:11.562Z,1016.36
2018-09-15T06:43:11.536Z,1016.35
2018-09-15T06:44:11.518Z,1016.34
2018-09-15T06:45:11.507Z,1016.41
2018-09-15T06:46:11.482Z,1016.40
2018-09-15T06:47:11.467Z,1016.48
2018-09-15T06:48:11.451Z,1016.56
2018-09-15T06:49:11.430Z,1016.53
2018-09-15T06:50:11.415Z,1016.59
2018-09-15T06:51:11.395Z,1016.67
2018-09-15T06:52:11.379Z,1016.61
2018-09-15T06:53:11.363Z,1016.62
2018-09-15T06:54:11.343Z,1016.67
2018-09-15T06:55:11.346Z,1016.67
2018-09-15T06:56:11.306Z,1016.68
2018-09-15T06:57:11.292Z,1016.69
2018-09-15T06:58:11.273Z,1016.75
2018-09-15T06:59:11.256Z,1016.70
2018-09-15T07:00:11.240Z,1016.69
2018-09-15T07:01:11.220Z,1016.79
2018-09-15T07:02:11.202Z,1016.75
2018-09-15T07:03:11.194Z,1016.83
2018-09-15T07:04:11.168Z,1016.77
2018-09-15T07:05:11.151Z,1016.83
2018-09-15T07:06:11.149Z,1016.77
2018-09-15T07:07:11.117Z,1016.88
2018-09-15T07:08:11.100Z,1016.84
2018-09-15T07:09:11.082Z,1016.91
2018-09-15T07:10:11.075Z,1016.89
2018-09-15T07:11:11.052Z,1016.89
2018-09-15T07:12:11.031Z,1016.86
2018-09-15T07:13:11.015Z,1016.86
2018-09-15T07:14:11.001Z,1016.86
2018-09-15T07:15:10.996Z,1016.87
2018-09-15T07:16:10.973Z,1016.92
2018-09-15T07:17:10.958Z,1016.91
2018-09-15T07:18:10.938Z,1016.94
2018-09-15T07:19:10.919Z,1016.95
2018-09-15T07:20:10.947Z,1016.92
2018-09-15T07:21:10.879Z,1016.94
2018-09-15T07:22:10.865Z,1016.93
2018-09-15T07:23:10.844Z,1016.92
2018-09-15T07:24:10.829Z,1016.96
2018-09-15T07:25:10.817Z,1016.96
2018-09-15T07:26:10.796Z,1016.97
2018-09-15T07:27:10.786Z,1017.01
2018-09-15T07:28:10.836Z,1016.94
2018-09-15T07:29:10.747Z,1017.00
2018-09-15T07:30:10.727Z,1017.04
2018-09-15T07:31:10.768Z,1017.04
2018-09-15T07:32:10.702Z,1016.97
2018-09-15T07:33:10.679Z,1016.96
2018-09-15T07:34:10.663Z,1017.01
2018-09-15T07:35:10.648Z,1017.05
2018-09-15T07:36:10.635Z,1017.06
2018-09-15T07:37:10.616Z,1017.02
2018-09-15T07:38:10.593Z,1017.10
2018-09-15T07:39:10.579Z,1017.08
2018-09-15T07:40:10.571Z,1017.03
2018-09-15T07:41:10.545Z,1017.05
2018-09-15T07:42:10.538Z,1017.08
2018-09-15T07:43:10.526Z,1017.04
2018-09-15T07:44:10.632Z,1017.01
2018-09-15T07:45:10.487Z,1017.02
2018-09-15T07:46:10.466Z,1017.00
2018-09-15T07:47:10.453Z,1017.04
2018-09-15T07:48:10.433Z,1017.06
2018-09-15T07:49:10.424Z,1017.10
2018-09-15T07:50:10.419Z,1017.10
2018-09-15T07:51:10.386Z,1017.14
2018-09-15T07:52:10.370Z,1017.19
2018-09-15T07:53:10.354Z,1017.18
2018-09-15T07:54:10.341Z,1017.18
2018-09-15T07:55:10.328Z,1017.18
2018-09-15T07:56:10.307Z,1017.19
2018-09-15T07:57:10.302Z,1017.23
2018-09-15T07:58:10.288Z,1017.28
2018-09-15T07:59:10.263Z,1017.25
2018-09-15T08:00:10.245Z,1017.29
2018-09-15T08:01:10.231Z,1017.29
2018-09-15T08:02:10.215Z,1017.31
2018-09-15T08:03:10.213Z,1017.37
2018-09-15T08:04:10.186Z,1017.34
2018-09-15T08:05:10.170Z,1017.38
2018-09-15T08:06:10.162Z,1017.39
2018-09-15T08:07:10.140Z,1017.43
2018-09-15T08:08:10.133Z,1017.45
2018-09-15T08:09:10.125Z,1017.50
2018-09-15T08:10:10.104Z,1017.45
2018-09-15T08:11:10.149Z,1017.47
2018-09-15T08:12:10.068Z,1017.48
2018-09-15T08:13:10.053Z,1017.50
2018-09-15T08:14:10.034Z,1017.53
2018-09-15T08:15:10.025Z,1017.55
2018-09-15T08:16:10.023Z,1017.53
2018-09-15T08:17:10.012Z,1017.51
2018-09-15T08:18:09.975Z,1017.54
2018-09-15T08:19:09.961Z,1017.51
2018-09-15T08:20:09.952Z,1017.54
2018-09-15T08:21:09.933Z,1017.54
2018-09-15T08:22:09.919Z,1017.57
2018-09-15T08:23:09.909Z,1017.55
2018-09-15T08:24:09.891Z,1017.58
2018-09-15T08:25:09.886Z,1017.58
2018-09-15T08:26:09.901Z,1017.62
2018-09-15T08:27:09.849Z,1017.56
2018-09-15T08:28:09.833Z,1017.59
2018-09-15T08:29:09.827Z,1017.55
2018-09-15T08:30:09.809Z,1017.58
2018-09-15T08:31:09.787Z,1017.55
2018-09-15T08:32:09.821Z,1017.58
2018-09-15T08:33:09.758Z,1017.57
2018-09-15T08:34:09.743Z,1017.59
2018-09-15T08:35:09.730Z,1017.60
2018-09-15T08:36:09.726Z,1017.66
2018-09-15T08:37:09.700Z,1017.63
2018-09-15T08:38:09.704Z,1017.64
2018-09-15T08:39:09.669Z,1017.64
2018-09-15T08:40:09.656Z,1017.69
2018-09-15T08:41:09.742Z,1017.61
2018-09-15T08:42:09.643Z,1017.67
2018-09-15T08:43:09.614Z,1017.66
2018-09-15T08:44:09.609Z,1017.64
2018-09-15T08:45:09.589Z,1017.68
2018-09-15T08:46:09.569Z,1017.68
2018-09-15T08:47:09.557Z,1017.67
2018-09-15T08:48:09.604Z,1017.66
2018-09-15T08:49:09.528Z,1017.70
2018-09-15T08:50:09.512Z,1017.76
2018-09-15T08:51:09.499Z,1017.76
2018-09-15T08:52:09.484Z,1017.76
2018-09-15T08:53:09.471Z,1017.77
2018-09-15T08:54:09.455Z,1017.81
2018-09-15T08:55:09.446Z,1017.78
2018-09-15T08:56:09.490Z,1017.72
2018-09-15T08:57:09.413Z,1017.74
2018-09-15T08:58:09.406Z,1017.77
2018-09-15T08:59:09.384Z,1017.80
2018-09-15T09:00:09.370Z,1017.80
2018-09-15T09:01:09.358Z,1017.76
2018-09-15T09:02:09.344Z,1017.76
2018-09-15T09:03:09.332Z,1017.78
2018-09-15T09:04:09.317Z,1017.83
2018-09-15T09:05:09.301Z,1017.83
2018-09-15T09:06:09.310Z,1017.83
2018-09-15T09:07:09.274Z,1017.85
2018-09-15T09:08:09.259Z,1017.85
2018-09-15T09:09:09.248Z,1017.86
2018-09-15T09:10:09.241Z,1017.87
2018-09-15T09:11:09.222Z,1017.86
2018-09-15T09:12:09.205Z,1017.93
2018-09-15T09:13:09.190Z,1017.92
2018-09-15T09:14:09.186Z,1017.93
2018-09-15T09:15:09.184Z,1017.92
2018-09-15T09:16:09.301Z,1017.92
2018-09-15T09:17:09.173Z,1017.90
2018-09-15T09:18:09.123Z,1017.89
2018-09-15T09:19:09.210Z,1017.90
2018-09-15T09:20:09.102Z,1017.92
2018-09-15T09:21:09.095Z,1017.92
2018-09-15T09:22:09.074Z,1017.95
2018-09-15T09:23:09.059Z,1017.96
2018-09-15T09:24:09.062Z,1017.97
2018-09-15T09:25:09.029Z,1017.93
2018-09-15T09:26:09.049Z,1017.93
2018-09-15T09:27:09.002Z,1017.99
2018-09-15T09:28:08.987Z,1018.06
2018-09-15T09:29:08.979Z,1018.03
2018-09-15T09:30:08.963Z,1018.09
2018-09-15T09:31:08.960Z,1018.12
2018-09-15T09:32:08.937Z,1018.11
2018-09-15T09:33:08.955Z,1018.14
2018-09-15T09:34:08.907Z,1018.19
2018-09-15T09:35:08.898Z,1018.28
2018-09-15T09:36:08.886Z,1018.28
2018-09-15T09:37:08.919Z,1018.25
2018-09-15T09:38:08.867Z,1018.32
2018-09-15T09:39:08.851Z,1018.24
2018-09-15T09:40:08.845Z,1018.25
2018-09-15T09:41:08.827Z,1018.18
2018-09-15T09:42:08.807Z,1018.19
2018-09-15T09:43:08.826Z,1018.16
2018-09-15T09:44:08.863Z,1018.22
2018-09-15T09:45:08.801Z,1018.20
2018-09-15T09:46:08.782Z,1018.32
2018-09-15T09:47:08.749Z,1018.36
2018-09-15T09:48:08.798Z,1018.39
2018-09-15T09:49:08.731Z,1018.39
2018-09-15T09:50:08.719Z,1018.52
2018-09-15T09:51:08.721Z,1018.47
2018-09-15T09:52:08.702Z,1018.23
2018-09-15T09:53:08.702Z,1018.29
2018-09-15T09:54:08.683Z,1018.30
2018-09-15T09:55:08.670Z,1018.53
2018-09-15T09:56:08.658Z,1018.41
2018-09-15T09:57:08.653Z,1018.28
2018-09-15T09:58:08.631Z,1018.28
2018-09-15T09:59:08.631Z,1018.58
2018-09-15T10:00:08.612Z,1018.30
2018-09-15T10:01:08.677Z,1018.49
2018-09-15T10:02:08.596Z,1018.52
2018-09-15T10:03:08.586Z,1018.49
2018-09-15T10:04:08.588Z,1018.56
2018-09-15T10:05:08.570Z,1018.46
2018-09-15T10:06:08.558Z,1018.49
2018-09-15T10:07:08.566Z,1018.48
2018-09-15T10:08:08.552Z,1018.46
2018-09-15T10:09:08.535Z,1018.24
2018-09-15T10:10:08.527Z,1018.37
2018-09-15T10:11:08.517Z,1018.09
2018-09-15T10:12:08.544Z,1018.14
2018-09-15T10:13:08.504Z,1018.08
2018-09-15T10:14:08.492Z,1018.11
2018-09-15T10:15:08.485Z,1018.05
2018-09-15T10:16:08.484Z,1018.02
2018-09-15T10:17:08.467Z,1018.09
2018-09-15T10:18:08.456Z,1018.12
2018-09-15T10:19:08.451Z,1018.16
2018-09-15T10:20:08.447Z,1018.21
2018-09-15T10:21:08.436Z,1018.20
2018-09-15T10:22:08.425Z,1018.17
2018-09-15T10:23:08.417Z,1018.17
2018-09-15T10:24:08.403Z,1018.16
2018-09-15T10:25:08.389Z,1018.16
2018-09-15T10:26:08.380Z,1018.16
2018-09-15T10:27:08.379Z,1018.09
2018-09-15T10:28:08.357Z,1018.09
2018-09-15T10:29:08.345Z,1018.09
2018-09-15T10:30:08.341Z,1018.09
2018-09-15T10:31:08.542Z,1018.08
2018-09-15T10:32:08.325Z,1018.08
2018-09-15T10:33:08.303Z,1018.09
2018-09-15T10:34:08.290Z,1018.37
2018-09-15T10:35:08.279Z,1018.15
2018-09-15T10:36:08.271Z,1018.13
2018-09-15T10:37:08.257Z,1018.25
2018-09-15T10:38:08.242Z,1018.44
2018-09-15T10:39:08.231Z,1018.40
2018-09-15T10:40:08.231Z,1018.19
2018-09-15T10:41:08.210Z,1018.22
2018-09-15T10:42:08.308Z,1018.21
2018-09-15T10:43:08.194Z,1018.26
2018-09-15T10:44:08.175Z,1018.23
2018-09-15T10:45:08.165Z,1018.22
2018-09-15T10:46:08.160Z,1018.25
2018-09-15T10:47:08.143Z,1018.22
2018-09-15T10:48:08.134Z,1018.26
2018-09-15T10:49:08.122Z,1018.19
2018-09-15T10:50:08.123Z,1018.20
2018-09-15T10:51:08.122Z,1018.27
2018-09-15T10:52:08.086Z,1018.23
2018-09-15T10:53:08.079Z,1018.23
2018-09-15T10:54:08.062Z,1018.19
2018-09-15T10:55:08.078Z,1018.21
2018-09-15T10:56:08.043Z,1018.24
2018-09-15T10:57:08.037Z,1018.20
2018-09-15T10:58:08.024Z,1018.17
2018-09-15T10:59:08.004Z,1018.24
2018-09-15T11:00:08.005Z,1018.20
2018-09-15T11:01:07.982Z,1018.22
2018-09-15T11:02:07.977Z,1018.21
2018-09-15T11:03:07.964Z,1018.24
2018-09-15T11:04:07.945Z,1018.22
2018-09-15T11:05:07.932Z,1018.31
2018-09-15T11:06:07.943Z,1018.20
2018-09-15T11:07:07.907Z,1018.18
2018-09-15T11:08:07.897Z,1018.18
2018-09-15T11:09:07.885Z,1018.18
2018-09-15T11:10:07.876Z,1018.17
2018-09-15T11:11:07.857Z,1018.13
2018-09-15T11:12:07.851Z,1018.14
2018-09-15T11:13:07.837Z,1018.11
2018-09-15T11:14:07.818Z,1018.13
2018-09-15T11:15:07.805Z,1018.07
2018-09-15T11:16:07.804Z,1018.02
2018-09-15T11:17:07.796Z,1018.04
2018-09-15T11:18:07.769Z,1018.02
2018-09-15T11:19:07.757Z,1018.03
2018-09-15T11:20:07.741Z,1018.04
2018-09-15T11:21:07.728Z,1018.05
2018-09-15T11:22:07.721Z,1018.04
2018-09-15T11:24:12.209Z,1018.05
2018-09-15T11:25:12.198Z,1018.11
2018-09-15T11:26:12.199Z,1018.11
2018-09-15T11:27:12.169Z,1018.16
2018-09-15T11:28:12.158Z,1018.15
2018-09-15T11:29:12.145Z,1018.11
2018-09-15T11:30:12.131Z,1018.13
2018-09-15T11:31:12.125Z,1018.18
2018-09-15T11:32:12.105Z,1018.15
2018-09-15T11:33:12.091Z,1018.20
2018-09-15T11:34:12.220Z,1018.18
2018-09-15T11:35:12.062Z,1018.18
2018-09-15T11:36:12.047Z,1018.19
2018-09-15T11:37:12.053Z,1018.18
2018-09-15T11:38:12.022Z,1018.17
2018-09-15T11:39:12.006Z,1018.18
2018-09-15T11:40:11.994Z,1018.16
2018-09-15T11:41:11.991Z,1018.18
2018-09-15T11:42:12.067Z,1018.19
2018-09-15T11:43:11.955Z,1018.18
2018-09-15T11:44:11.940Z,1018.16
2018-09-15T11:45:11.932Z,1018.19
2018-09-15T11:46:11.912Z,1018.17
2018-09-15T11:47:11.902Z,1018.17
2018-09-15T11:48:11.883Z,1018.18
2018-09-15T11:49:11.872Z,1018.21
2018-09-15T11:50:11.885Z,1018.19
2018-09-15T11:51:11.842Z,1018.22
2018-09-15T11:52:11.833Z,1018.15
2018-09-15T11:53:11.815Z,1018.17
2018-09-15T11:54:11.804Z,1018.15
2018-09-15T11:55:11.790Z,1018.16
2018-09-15T11:56:11.781Z,1018.20
2018-09-15T11:57:11.759Z,1018.17
2018-09-15T11:58:11.746Z,1018.15
2018-09-15T11:59:11.731Z,1018.13
2018-09-15T12:00:11.792Z,1018.17
2018-09-15T12:01:11.706Z,1018.21
2018-09-15T12:02:11.688Z,1018.23
2018-09-15T12:03:11.678Z,1018.24
2018-09-15T12:04:11.663Z,1018.26
2018-09-15T12:05:11.662Z,1018.27
2018-09-15T12:06:11.688Z,1018.34